createdAt,value
2018-06-24T00:00:53.392Z,49.77
2018-06-24T00:02:31.618Z,49.78
2018-06-24T00:04:09.102Z,50.25
2018-06-24T00:05:47.532Z,50.08
2018-06-24T00:07:25.527Z,50.29
2018-06-24T00:09:02.709Z,49.81
2018-06-24T00:10:39.136Z,49.95
2018-06-24T00:12:16.651Z,50.03
2018-06-24T00:13:53.969Z,50.63
2018-06-24T00:15:34.538Z,50.53
2018-06-24T00:17:11.590Z,49.90
2018-06-24T00:18:48.634Z,50.38
2018-06-24T00:20:26.350Z,50.49
2018-06-24T00:22:04.926Z,49.97
2018-06-24T00:23:41.376Z,50.11
2018-06-24T00:25:21.342Z,50.47
2018-06-24T00:26:58.477Z,50.58
2018-06-24T00:28:34.789Z,50.62
2018-06-24T00:30:14.061Z,50.70
2018-06-24T00:31:52.632Z,50.15
2018-06-24T00:33:30.134Z,50.56
2018-06-24T00:35:08.856Z,50.62
2018-06-24T00:36:48.284Z,50.12
2018-06-24T00:38:30.080Z,50.77
2018-06-24T00:40:06.727Z,50.81
2018-06-24T00:41:44.484Z,50.20
2018-06-24T00:43:26.004Z,50.72
2018-06-24T00:45:06.266Z,50.19
2018-06-24T00:46:49.952Z,50.81
2018-06-24T00:48:40.566Z,50.73
2018-06-24T00:50:17.729Z,50.37
2018-06-24T00:51:55.407Z,50.33
2018-06-24T00:53:31.800Z,50.30
2018-06-24T00:55:09.045Z,50.89
2018-06-24T00:56:45.453Z,50.73
2018-06-24T00:58:22.252Z,50.91
2018-06-24T01:00:16.077Z,50.26
2018-06-24T01:01:54.634Z,50.31
2018-06-24T01:03:31.437Z,50.19
2018-06-24T01:05:08.561Z,50.71
2018-06-24T01:06:48.082Z,50.63
2018-06-24T01:08:25.188Z,50.64
2018-06-24T01:10:02.109Z,50.32
2018-06-24T01:11:40.674Z,50.73
2018-06-24T01:13:17.960Z,50.58
2018-06-24T01:14:54.935Z,50.22
2018-06-24T01:16:39.454Z,50.20
2018-06-24T01:18:15.959Z,50.70
2018-06-24T01:19:55.162Z,50.58
2018-06-24T01:21:32.484Z,50.38
2018-06-24T01:23:10.372Z,50.61
2018-06-24T01:24:46.693Z,50.70
2018-06-24T01:26:22.980Z,50.83
2018-06-24T01:28:00.891Z,50.86
2018-06-24T01:29:38.066Z,50.40
2018-06-24T01:31:15.397Z,50.80
2018-06-24T01:32:52.763Z,50.51
2018-06-24T01:34:29.359Z,50.54
2018-06-24T01:36:06.121Z,50.91
2018-06-24T01:37:43.421Z,50.54
2018-06-24T01:39:20.795Z,51.02
2018-06-24T01:40:57.848Z,50.57
2018-06-24T01:42:35.795Z,51.10
2018-06-24T01:44:12.393Z,50.67
2018-06-24T01:45:51.452Z,50.60
2018-06-24T01:47:31.312Z,50.64
2018-06-24T01:49:09.215Z,50.63
2018-06-24T01:50:47.512Z,50.72
2018-06-24T01:52:24.458Z,50.74
2018-06-24T01:54:04.488Z,51.28
2018-06-24T01:55:41.283Z,51.30
2018-06-24T01:57:20.041Z,51.31
2018-06-24T01:58:57.134Z,50.86
2018-06-24T02:00:33.799Z,50.79
2018-06-24T02:02:10.557Z,50.82
2018-06-24T02:03:46.918Z,51.30
2018-06-24T02:05:23.226Z,50.91
2018-06-24T02:06:59.547Z,51.38
2018-06-24T02:08:36.737Z,51.50
2018-06-24T02:10:14.241Z,51.51
2018-06-24T02:11:50.571Z,50.92
2018-06-24T02:13:27.104Z,51.55
2018-06-24T02:15:05.803Z,50.98
2018-06-24T02:16:43.025Z,51.58
2018-06-24T02:19:52.609Z,51.58
2018-06-24T02:21:30.335Z,51.13
2018-06-24T02:23:06.662Z,51.16
2018-06-24T02:24:42.971Z,51.56
2018-06-24T02:26:19.261Z,51.67
2018-06-24T02:27:55.953Z,51.67
2018-06-24T02:29:32.166Z,51.72
2018-06-24T02:31:08.829Z,51.12
2018-06-24T02:32:45.099Z,51.15
2018-06-24T02:34:21.715Z,51.63
2018-06-24T02:35:58.252Z,51.18
2018-06-24T02:37:34.525Z,51.10
2018-06-24T02:39:11.700Z,51.22
2018-06-24T02:40:48.410Z,51.74
2018-06-24T02:42:24.736Z,51.75
2018-06-24T02:44:01.052Z,51.20
2018-06-24T02:45:37.613Z,51.43
2018-06-24T02:47:14.367Z,51.69
2018-06-24T02:48:51.516Z,51.51
2018-06-24T02:50:27.806Z,51.33
2018-06-24T02:52:04.628Z,51.45
2018-06-24T02:53:44.841Z,51.82
2018-06-24T02:55:21.631Z,52.09
2018-06-24T02:56:59.202Z,51.80
2018-06-24T02:58:37.886Z,51.46
2018-06-24T03:00:20.658Z,51.87
2018-06-24T03:01:59.297Z,51.40
2018-06-24T03:03:37.980Z,51.94
2018-06-24T03:05:14.782Z,51.72
2018-06-24T03:06:52.563Z,51.49
2018-06-24T03:08:29.467Z,52.04
2018-06-24T03:10:06.557Z,52.02
2018-06-24T03:11:43.795Z,52.09
2018-06-24T03:13:30.482Z,52.06
2018-06-24T03:15:08.397Z,51.88
2018-06-24T03:16:45.006Z,51.54
2018-06-24T03:18:21.345Z,52.04
2018-06-24T03:19:58.530Z,52.00
2018-06-24T03:21:37.593Z,52.13
2018-06-24T03:23:13.931Z,51.66
2018-06-24T03:24:50.245Z,51.70
2018-06-24T03:26:27.204Z,52.04
2018-06-24T03:28:03.958Z,52.18
2018-06-24T03:29:42.325Z,51.57
2018-06-24T03:31:19.071Z,51.63
2018-06-24T03:32:55.748Z,51.81
2018-06-24T03:34:32.249Z,51.66
2018-06-24T03:36:08.481Z,51.62
2018-06-24T03:37:45.541Z,51.80
2018-06-24T03:39:21.960Z,51.66
2018-06-24T03:40:58.207Z,52.18
2018-06-24T03:42:34.633Z,52.25
2018-06-24T03:44:11.033Z,52.44
2018-06-24T03:45:48.225Z,52.34
2018-06-24T03:47:24.472Z,51.72
2018-06-24T03:49:00.750Z,51.75
2018-06-24T03:50:37.042Z,52.23
2018-06-24T03:52:13.769Z,52.38
2018-06-24T03:53:50.593Z,52.19
2018-06-24T03:55:26.832Z,52.12
2018-06-24T03:57:03.453Z,52.07
2018-06-24T03:58:40.589Z,52.33
2018-06-24T04:00:17.335Z,52.23
2018-06-24T04:01:54.090Z,52.37
2018-06-24T04:03:31.025Z,51.80
2018-06-24T04:05:08.731Z,52.05
2018-06-24T04:06:45.008Z,52.05
2018-06-24T04:08:21.306Z,51.94
2018-06-24T04:09:57.632Z,52.73
2018-06-24T04:11:34.545Z,52.06
2018-06-24T04:13:10.802Z,52.68
2018-06-24T04:14:47.862Z,52.18
2018-06-24T04:16:24.297Z,51.97
2018-06-24T04:18:00.869Z,52.50
2018-06-24T04:19:37.269Z,52.15
2018-06-24T04:21:15.694Z,52.66
2018-06-24T04:22:52.241Z,52.77
2018-06-24T04:24:28.598Z,52.35
2018-06-24T04:26:05.293Z,52.50
2018-06-24T04:27:42.964Z,52.83
2018-06-24T04:29:20.281Z,52.73
2018-06-24T04:30:57.447Z,52.77
2018-06-24T04:32:34.505Z,52.47
2018-06-24T04:34:10.758Z,52.37
2018-06-24T04:35:47.190Z,52.79
2018-06-24T04:37:29.354Z,52.79
2018-06-24T04:39:08.066Z,52.41
2018-06-24T04:40:45.000Z,52.46
2018-06-24T04:42:21.334Z,52.94
2018-06-24T04:43:58.162Z,52.50
2018-06-24T04:45:35.376Z,53.04
2018-06-24T04:47:11.937Z,52.50
2018-06-24T04:48:48.267Z,52.52
2018-06-24T04:50:24.946Z,52.99
2018-06-24T04:52:01.156Z,52.54
2018-06-24T04:53:37.410Z,53.09
2018-06-24T04:55:13.707Z,53.21
2018-06-24T04:56:50.472Z,53.01
2018-06-24T04:58:26.761Z,53.00
2018-06-24T05:00:05.823Z,52.71
2018-06-24T05:01:42.502Z,52.95
2018-06-24T05:03:19.488Z,53.37
2018-06-24T05:04:56.036Z,53.06
2018-06-24T05:06:32.823Z,53.40
2018-06-24T05:08:09.665Z,53.36
2018-06-24T05:09:47.151Z,52.87
2018-06-24T05:11:23.921Z,53.40
2018-06-24T05:13:00.205Z,53.43
2018-06-24T05:14:36.789Z,53.25
2018-06-24T05:16:13.839Z,52.78
2018-06-24T05:17:50.105Z,53.22
2018-06-24T05:19:26.810Z,53.35
2018-06-24T05:21:03.373Z,53.16
2018-06-24T05:22:40.051Z,52.81
2018-06-24T05:24:16.483Z,53.18
2018-06-24T05:25:54.489Z,52.80
2018-06-24T05:27:31.832Z,53.18
2018-06-24T05:29:11.741Z,52.80
2018-06-24T05:30:48.040Z,53.25
2018-06-24T05:32:25.665Z,53.37
2018-06-24T05:34:03.828Z,53.18
2018-06-24T05:35:43.037Z,52.92
2018-06-24T05:37:20.085Z,52.74
2018-06-24T05:38:56.634Z,52.86
2018-06-24T05:40:33.114Z,52.72
2018-06-24T05:42:09.997Z,52.78
2018-06-24T05:43:47.392Z,52.80
2018-06-24T05:45:23.689Z,52.79
2018-06-24T05:47:00.992Z,52.85
2018-06-24T05:48:37.637Z,52.88
2018-06-24T05:50:14.227Z,53.17
2018-06-24T05:51:51.417Z,52.90
2018-06-24T05:53:27.837Z,52.75
2018-06-24T05:55:04.837Z,52.89
2018-06-24T05:56:41.162Z,52.90
2018-06-24T05:58:18.435Z,53.31
2018-06-24T05:59:55.416Z,52.75
2018-06-24T06:01:32.458Z,52.93
2018-06-24T06:03:09.649Z,52.91
2018-06-24T06:04:46.013Z,53.41
2018-06-24T06:06:23.090Z,53.40
2018-06-24T06:08:01.052Z,52.86
2018-06-24T06:09:37.578Z,52.89
2018-06-24T06:11:14.016Z,52.95
2018-06-24T06:12:50.383Z,53.08
2018-06-24T06:14:27.459Z,52.85
2018-06-24T06:16:03.710Z,53.31
2018-06-24T06:17:43.601Z,53.01
2018-06-24T06:19:20.845Z,52.96
2018-06-24T06:20:58.325Z,52.76
2018-06-24T06:22:35.534Z,52.84
2018-06-24T06:24:11.972Z,53.14
2018-06-24T06:25:48.327Z,52.92
2018-06-24T06:27:25.130Z,52.82
2018-06-24T06:29:01.823Z,53.57
2018-06-24T06:30:38.527Z,52.86
2018-06-24T06:32:16.441Z,53.36
2018-06-24T06:33:53.714Z,52.88
2018-06-24T06:35:30.627Z,53.45
2018-06-24T06:37:06.950Z,53.50
2018-06-24T06:38:45.131Z,53.37
2018-06-24T06:40:22.514Z,52.81
2018-06-24T06:41:58.827Z,53.35
2018-06-24T06:43:35.416Z,53.39
2018-06-24T06:45:13.159Z,53.49
2018-06-24T06:46:50.827Z,53.33
2018-06-24T06:48:28.174Z,53.28
2018-06-24T06:50:04.630Z,53.36
2018-06-24T06:51:40.889Z,53.39
2018-06-24T06:53:17.608Z,53.20
2018-06-24T06:54:54.562Z,53.44
2018-06-24T06:56:30.799Z,53.36
2018-06-24T06:58:07.441Z,53.33
2018-06-24T06:59:46.544Z,52.93
2018-06-24T07:01:24.626Z,52.80
2018-06-24T07:03:00.894Z,53.36
2018-06-24T07:04:38.267Z,52.80
2018-06-24T07:06:16.170Z,53.27
2018-06-24T07:07:53.481Z,53.24
2018-06-24T07:09:32.907Z,52.76
2018-06-24T07:11:10.667Z,52.82
2018-06-24T07:12:48.465Z,52.77
2018-06-24T07:14:28.473Z,52.81
2018-06-24T07:16:04.849Z,52.71
2018-06-24T07:17:41.116Z,53.49
2018-06-24T07:19:20.570Z,53.32
2018-06-24T07:20:57.723Z,52.84
2018-06-24T07:22:34.129Z,53.31
2018-06-24T07:24:11.015Z,53.07
2018-06-24T07:25:49.237Z,53.08
2018-06-24T07:27:26.902Z,52.56
2018-06-24T07:29:03.302Z,53.15
2018-06-24T07:30:41.624Z,52.83
2018-06-24T07:32:19.605Z,52.75
2018-06-24T07:33:56.643Z,53.34
2018-06-24T07:35:37.316Z,52.77
2018-06-24T07:37:23.519Z,52.89
2018-06-24T07:39:06.691Z,52.76
2018-06-24T07:40:47.248Z,53.22
2018-06-24T07:42:25.254Z,53.32
2018-06-24T07:44:01.718Z,53.19
2018-06-24T07:45:38.733Z,52.73
2018-06-24T07:47:16.310Z,53.19
2018-06-24T07:48:54.580Z,53.06
2018-06-24T07:50:31.482Z,52.78
2018-06-24T07:52:10.330Z,53.16
2018-06-24T07:53:49.010Z,53.06
2018-06-24T07:55:25.845Z,52.71
2018-06-24T07:57:03.371Z,53.18
2018-06-24T07:58:41.542Z,53.10
2018-06-24T08:00:18.469Z,53.15
2018-06-24T08:01:56.733Z,52.76
2018-06-24T08:03:33.477Z,53.08
2018-06-24T08:05:11.333Z,52.74
2018-06-24T08:06:49.109Z,52.68
2018-06-24T08:08:26.302Z,53.21
2018-06-24T08:10:02.680Z,53.05
2018-06-24T08:11:40.110Z,52.68
2018-06-24T08:13:18.146Z,52.60
2018-06-24T08:14:56.684Z,53.20
2018-06-24T08:16:35.336Z,53.20
2018-06-24T08:18:13.262Z,52.78
2018-06-24T08:19:50.576Z,53.18
2018-06-24T08:21:31.788Z,52.64
2018-06-24T08:23:11.316Z,52.94
2018-06-24T08:24:51.676Z,53.37
2018-06-24T08:26:33.585Z,53.31
2018-06-24T08:28:09.976Z,53.36
2018-06-24T08:29:46.642Z,52.76
2018-06-24T08:31:23.618Z,53.33
2018-06-24T08:32:59.921Z,52.82
2018-06-24T08:34:37.092Z,52.79
2018-06-24T08:36:16.648Z,52.78
2018-06-24T08:37:55.213Z,53.33
2018-06-24T08:39:32.360Z,53.33
2018-06-24T08:41:12.286Z,52.85
2018-06-24T08:42:54.217Z,53.40
2018-06-24T08:44:33.300Z,53.40
2018-06-24T08:46:18.519Z,52.88
2018-06-24T08:47:57.195Z,53.35
2018-06-24T08:49:37.377Z,52.83
2018-06-24T08:51:16.338Z,53.36
2018-06-24T08:52:53.345Z,53.30
2018-06-24T08:54:38.155Z,53.28
2018-06-24T08:56:14.577Z,52.82
2018-06-24T08:57:53.613Z,52.79
2018-06-24T08:59:30.890Z,53.46
2018-06-24T09:01:07.560Z,53.37
2018-06-24T09:02:44.811Z,52.96
2018-06-24T09:04:23.557Z,53.38
2018-06-24T09:06:00.654Z,53.49
2018-06-24T09:07:41.671Z,52.87
2018-06-24T09:09:21.368Z,52.80
2018-06-24T09:10:58.137Z,52.79
2018-06-24T09:12:37.567Z,52.82
2018-06-24T09:14:14.160Z,52.81
2018-06-24T09:15:51.865Z,52.80
2018-06-24T09:17:32.474Z,52.93
2018-06-24T09:19:09.874Z,52.73
2018-06-24T09:20:51.115Z,52.89
2018-06-24T09:22:33.543Z,52.92
2018-06-24T09:24:16.248Z,53.22
2018-06-24T09:27:38.934Z,52.60
2018-06-24T09:29:19.652Z,53.14
2018-06-24T09:30:56.218Z,53.16
2018-06-24T09:32:34.512Z,53.14
2018-06-24T09:34:12.426Z,53.07
2018-06-24T09:35:55.755Z,52.67
2018-06-24T09:37:32.817Z,52.53
2018-06-24T09:39:12.329Z,52.53
2018-06-24T09:40:53.668Z,52.56
2018-06-24T09:42:34.309Z,52.48
2018-06-24T09:44:12.371Z,53.09
2018-06-24T09:45:50.642Z,53.08
2018-06-24T09:47:30.223Z,53.08
2018-06-24T09:49:18.978Z,52.42
2018-06-24T09:50:59.252Z,52.51
2018-06-24T09:52:38.830Z,52.49
2018-06-24T09:54:17.917Z,52.97
2018-06-24T09:55:59.517Z,53.04
2018-06-24T09:57:40.029Z,52.43
2018-06-24T09:59:17.904Z,52.36
2018-06-24T10:00:55.539Z,52.93
2018-06-24T10:02:36.467Z,52.91
2018-06-24T10:04:13.200Z,52.89
2018-06-24T10:05:49.596Z,52.36
2018-06-24T10:07:25.848Z,52.88
2018-06-24T10:09:03.057Z,52.53
2018-06-24T10:10:39.691Z,52.82
2018-06-24T10:12:18.449Z,52.27
2018-06-24T10:13:56.747Z,52.24
2018-06-24T10:15:33.440Z,52.85
2018-06-24T10:17:15.345Z,52.85
2018-06-24T10:18:55.323Z,52.85
2018-06-24T10:20:45.313Z,52.76
2018-06-24T10:22:24.482Z,52.26
2018-06-24T10:24:06.443Z,52.79
2018-06-24T10:25:46.752Z,52.69
2018-06-24T10:27:26.224Z,52.65
2018-06-24T10:29:27.339Z,52.12
2018-06-24T10:31:09.539Z,52.67
2018-06-24T10:32:51.209Z,52.77
2018-06-24T10:34:29.973Z,52.98
2018-06-24T10:36:07.935Z,52.60
2018-06-24T10:37:49.476Z,52.17
2018-06-24T10:39:28.884Z,52.71
2018-06-24T10:41:07.292Z,52.66
2018-06-24T10:42:45.507Z,52.92
2018-06-24T10:44:24.843Z,51.93
2018-06-24T10:46:20.690Z,52.04
2018-06-24T10:48:01.517Z,52.17
2018-06-24T10:49:41.421Z,52.18
2018-06-24T10:51:20.629Z,52.13
2018-06-24T10:53:07.663Z,52.72
2018-06-24T10:54:47.696Z,52.60
2018-06-24T10:56:30.912Z,52.23
2018-06-24T10:58:16.569Z,52.07
2018-06-24T10:59:56.979Z,52.04
2018-06-24T11:01:38.599Z,52.36
2018-06-24T11:03:20.357Z,52.62
2018-06-24T11:05:05.498Z,52.55
2018-06-24T11:06:44.725Z,52.57
2018-06-24T11:08:23.198Z,52.21
2018-06-24T11:10:03.478Z,51.87
2018-06-24T11:11:41.757Z,51.89
2018-06-24T11:13:22.577Z,52.37
2018-06-24T11:14:59.723Z,52.27
2018-06-24T11:16:40.887Z,52.33
2018-06-24T11:18:19.592Z,51.90
2018-06-24T11:19:57.614Z,52.00
2018-06-24T11:21:36.525Z,52.23
2018-06-24T11:23:22.943Z,51.62
2018-06-24T11:25:03.333Z,51.59
2018-06-24T11:26:40.728Z,51.31
2018-06-24T11:28:28.458Z,51.78
2018-06-24T11:30:09.515Z,52.22
2018-06-24T11:31:50.950Z,51.48
2018-06-24T11:33:28.064Z,52.21
2018-06-24T11:35:05.954Z,51.75
2018-06-24T11:36:43.008Z,51.39
2018-06-24T11:38:21.448Z,51.66
2018-06-24T11:39:57.883Z,51.42
2018-06-24T11:41:37.475Z,52.06
2018-06-24T11:43:36.069Z,51.83
2018-06-24T11:45:35.382Z,51.51
2018-06-24T11:47:19.834Z,51.35
2018-06-24T11:48:59.845Z,51.31
2018-06-24T11:50:38.069Z,51.68
2018-06-24T11:52:15.142Z,51.27
2018-06-24T11:53:51.689Z,51.77
2018-06-24T11:55:32.656Z,51.35
2018-06-24T11:57:09.824Z,51.61
2018-06-24T11:58:48.646Z,51.01
2018-06-24T12:00:32.152Z,50.99
2018-06-24T12:02:09.915Z,51.63
2018-06-24T12:03:49.576Z,51.69
2018-06-24T12:05:28.251Z,51.21
2018-06-24T12:07:06.771Z,50.96
2018-06-24T12:08:43.162Z,51.44
2018-06-24T12:10:25.814Z,50.85
2018-06-24T12:12:04.273Z,51.33
2018-06-24T12:13:42.964Z,50.82
2018-06-24T12:15:20.642Z,50.85
2018-06-24T12:16:59.366Z,51.38
2018-06-24T12:18:39.280Z,50.75
2018-06-24T12:20:16.745Z,50.75
2018-06-24T12:21:54.415Z,50.63
2018-06-24T12:23:31.952Z,50.73
2018-06-24T12:26:44.296Z,50.54
2018-06-24T12:28:27.293Z,50.50
2018-06-24T12:30:05.589Z,50.54
2018-06-24T12:31:43.748Z,50.44
2018-06-24T12:33:25.049Z,51.07
2018-06-24T12:35:04.638Z,50.23
2018-06-24T12:36:43.345Z,50.95
2018-06-24T12:38:20.541Z,50.88
2018-06-24T12:39:57.556Z,50.44
2018-06-24T12:41:34.140Z,50.88
2018-06-24T12:43:20.551Z,50.33
2018-06-24T12:45:00.461Z,50.76
2018-06-24T12:46:40.537Z,50.83
2018-06-24T12:48:21.812Z,50.53
2018-06-24T12:50:04.315Z,50.66
2018-06-24T12:51:51.590Z,50.60
2018-06-24T12:53:31.510Z,50.11
2018-06-24T12:55:14.293Z,50.24
2018-06-24T12:56:54.154Z,50.61
2018-06-24T12:58:32.533Z,50.53
2018-06-24T13:00:14.706Z,49.95
2018-06-24T13:03:35.684Z,50.35
2018-06-24T13:05:16.617Z,49.82
2018-06-24T13:06:53.702Z,50.44
2018-06-24T13:08:34.556Z,50.23
2018-06-24T13:10:13.755Z,50.34
2018-06-24T13:11:52.822Z,49.98
2018-06-24T13:13:36.566Z,49.70
2018-06-24T13:15:18.945Z,49.63
2018-06-24T13:17:00.289Z,49.60
2018-06-24T13:18:38.252Z,50.17
2018-06-24T13:20:14.592Z,50.08
2018-06-24T13:21:54.279Z,49.63
2018-06-24T13:23:36.950Z,49.52
2018-06-24T13:25:14.606Z,49.46
2018-06-24T13:26:53.442Z,50.23
2018-06-24T13:28:32.608Z,49.92
2018-06-24T13:30:11.978Z,49.35
2018-06-24T13:31:52.217Z,49.97
2018-06-24T13:33:31.563Z,49.58
2018-06-24T13:35:09.560Z,49.91
2018-06-24T13:36:46.322Z,49.81
2018-06-24T13:38:26.806Z,49.74
2018-06-24T13:40:06.616Z,49.28
2018-06-24T13:41:46.128Z,49.26
2018-06-24T13:43:24.152Z,49.65
2018-06-24T13:45:04.144Z,49.32
2018-06-24T13:46:47.367Z,49.42
2018-06-24T13:48:27.514Z,49.69
2018-06-24T13:50:11.372Z,49.02
2018-06-24T13:51:52.669Z,49.03
2018-06-24T13:53:31.622Z,49.02
2018-06-24T13:55:10.208Z,49.02
2018-06-24T13:56:51.710Z,49.67
2018-06-24T13:58:29.454Z,49.49
2018-06-24T14:00:14.815Z,48.93
2018-06-24T14:01:51.345Z,49.62
2018-06-24T14:03:31.093Z,49.00
2018-06-24T14:05:11.243Z,49.02
2018-06-24T14:06:49.679Z,48.84
2018-06-24T14:08:31.721Z,48.65
2018-06-24T14:10:11.162Z,49.52
2018-06-24T14:11:53.790Z,49.08
2018-06-24T14:13:30.437Z,49.46
2018-06-24T14:15:07.336Z,49.26
2018-06-24T14:16:47.448Z,49.30
2018-06-24T14:18:26.536Z,48.70
2018-06-24T14:20:06.352Z,49.22
2018-06-24T14:21:45.601Z,49.37
2018-06-24T14:23:24.455Z,49.41
2018-06-24T14:25:02.150Z,49.23
2018-06-24T14:26:38.870Z,49.30
2018-06-24T14:28:19.580Z,49.26
2018-06-24T14:29:59.310Z,49.26
2018-06-24T14:31:37.083Z,49.28
2018-06-24T14:33:14.678Z,48.83
2018-06-24T14:34:54.193Z,49.23
2018-06-24T14:36:31.026Z,48.67
2018-06-24T14:38:10.973Z,48.66
2018-06-24T14:39:48.426Z,48.84
2018-06-24T14:41:29.502Z,49.15
2018-06-24T14:43:10.766Z,49.08
2018-06-24T14:44:58.563Z,48.49
2018-06-24T14:46:36.109Z,49.06
2018-06-24T14:48:14.098Z,48.49
2018-06-24T14:49:51.890Z,48.48
2018-06-24T14:51:29.004Z,48.38
2018-06-24T14:53:07.863Z,48.92
2018-06-24T14:54:48.026Z,48.38
2018-06-24T14:56:30.641Z,48.36
2018-06-24T14:58:09.545Z,48.46
2018-06-24T14:59:47.443Z,48.51
2018-06-24T15:01:27.198Z,48.94
2018-06-24T15:03:07.365Z,48.32
2018-06-24T15:04:46.203Z,48.39
2018-06-24T15:06:25.244Z,49.15
2018-06-24T15:08:03.068Z,48.30
2018-06-24T15:09:40.939Z,48.84
2018-06-24T15:11:17.981Z,48.89
2018-06-24T15:12:54.740Z,48.93
2018-06-24T15:14:32.817Z,48.36
2018-06-24T15:16:10.469Z,48.36
2018-06-24T15:17:46.549Z,48.90
2018-06-24T15:19:25.072Z,48.72
2018-06-24T15:21:02.399Z,48.48
2018-06-24T15:22:41.604Z,48.85
2018-06-24T15:24:18.024Z,48.23
2018-06-24T15:25:58.514Z,48.39
2018-06-24T15:27:36.679Z,48.18
2018-06-24T15:29:14.269Z,48.24
2018-06-24T15:30:50.491Z,48.15
2018-06-24T15:32:29.626Z,48.74
2018-06-24T15:34:08.570Z,48.17
2018-06-24T15:35:46.492Z,48.16
2018-06-24T15:37:25.529Z,48.42
2018-06-24T15:39:04.168Z,48.16
2018-06-24T15:40:44.181Z,48.71
2018-06-24T15:42:22.943Z,48.76
2018-06-24T15:43:59.753Z,48.77
2018-06-24T15:45:36.949Z,48.83
2018-06-24T15:47:13.973Z,48.17
2018-06-24T15:48:51.440Z,48.12
2018-06-24T15:50:29.497Z,48.29
2018-06-24T15:52:12.260Z,48.78
2018-06-24T15:53:52.621Z,48.24
2018-06-24T15:55:31.212Z,48.23
2018-06-24T15:57:10.516Z,48.24
2018-06-24T15:58:47.933Z,48.76
2018-06-24T16:00:29.037Z,48.73
2018-06-24T16:02:12.769Z,48.67
2018-06-24T16:03:49.925Z,48.22
2018-06-24T16:05:28.520Z,48.39
2018-06-24T16:07:06.607Z,48.74
2018-06-24T16:08:46.509Z,48.23
2018-06-24T16:10:27.320Z,48.11
2018-06-24T16:12:08.653Z,48.47
2018-06-24T16:13:46.429Z,48.61
2018-06-24T16:15:28.593Z,48.75
2018-06-24T16:17:06.363Z,48.77
2018-06-24T16:18:44.560Z,48.57
2018-06-24T16:20:22.443Z,48.83
2018-06-24T16:22:00.354Z,48.71
2018-06-24T16:23:39.732Z,48.40
2018-06-24T16:25:17.645Z,48.60
2018-06-24T16:26:54.532Z,48.51
2018-06-24T16:28:35.185Z,48.07
2018-06-24T16:30:34.830Z,48.11
2018-06-24T16:32:15.508Z,48.59
2018-06-24T16:33:53.702Z,48.70
2018-06-24T16:35:31.729Z,48.11
2018-06-24T16:37:15.840Z,48.21
2018-06-24T16:38:54.259Z,48.67
2018-06-24T16:40:33.054Z,48.04
2018-06-24T16:42:15.421Z,48.63
2018-06-24T16:43:53.763Z,48.40
2018-06-24T16:45:36.840Z,48.69
2018-06-24T16:47:16.198Z,48.22
2018-06-24T16:48:53.518Z,48.73
2018-06-24T16:50:32.616Z,48.45
2018-06-24T16:52:09.419Z,48.78
2018-06-24T16:53:48.637Z,48.76
2018-06-24T16:55:27.178Z,48.73
2018-06-24T16:57:06.210Z,48.73
2018-06-24T16:58:42.540Z,48.74
2018-06-24T17:00:29.565Z,48.80
2018-06-24T17:02:16.672Z,48.61
2018-06-24T17:03:53.104Z,48.71
2018-06-24T17:05:31.112Z,48.21
2018-06-24T17:07:07.571Z,48.87
2018-06-24T17:08:44.628Z,48.66
2018-06-24T17:10:21.666Z,48.64
2018-06-24T17:11:58.506Z,48.80
2018-06-24T17:13:36.628Z,48.23
2018-06-24T17:15:16.824Z,48.29
2018-06-24T17:16:56.814Z,48.83
2018-06-24T17:18:40.771Z,48.81
2018-06-24T17:20:17.395Z,48.35
2018-06-24T17:21:53.794Z,48.34
2018-06-24T17:23:30.750Z,48.30
2018-06-24T17:25:13.092Z,48.87
2018-06-24T17:26:49.765Z,48.90
2018-06-24T17:28:27.089Z,48.33
2018-06-24T17:30:06.812Z,48.93
2018-06-24T17:31:47.397Z,48.85
2018-06-24T17:33:27.100Z,48.90
2018-06-24T17:35:08.750Z,49.00
2018-06-24T17:36:48.562Z,48.54
2018-06-24T17:38:27.333Z,48.67
2018-06-24T17:40:08.456Z,48.88
2018-06-24T17:41:48.090Z,48.97
2018-06-24T17:43:28.119Z,48.78
2018-06-24T17:45:06.449Z,48.49
2018-06-24T17:46:45.413Z,49.07
2018-06-24T17:48:28.471Z,49.04
2018-06-24T17:50:06.660Z,48.75
2018-06-24T17:51:48.458Z,49.10
2018-06-24T17:53:26.974Z,49.13
2018-06-24T17:55:07.437Z,49.16
2018-06-24T17:56:49.113Z,48.53
2018-06-24T17:58:28.879Z,49.23
2018-06-24T18:00:07.187Z,49.22
2018-06-24T18:01:47.394Z,48.65
2018-06-24T18:03:33.400Z,48.96
2018-06-24T18:05:17.859Z,49.24
2018-06-24T18:06:54.725Z,49.27
2018-06-24T18:08:31.781Z,48.76
2018-06-24T18:10:09.018Z,49.28
2018-06-24T18:11:47.023Z,48.86
2018-06-24T18:13:24.108Z,48.98
2018-06-24T18:15:03.296Z,48.80
2018-06-24T18:16:46.527Z,48.93
2018-06-24T18:18:24.505Z,48.71
2018-06-24T18:20:02.295Z,48.81
2018-06-24T18:21:45.119Z,48.78
2018-06-24T18:23:21.474Z,49.38
2018-06-24T18:24:58.149Z,49.51
2018-06-24T18:27:08.207Z,49.46
2018-06-24T18:28:46.792Z,48.95
2018-06-24T18:30:27.881Z,48.92
2018-06-24T18:32:05.212Z,49.24
2018-06-24T18:33:43.332Z,49.51
2018-06-24T18:35:20.713Z,49.56
2018-06-24T18:36:59.765Z,48.96
2018-06-24T18:38:37.613Z,49.49
2018-06-24T18:40:19.712Z,48.97
2018-06-24T18:41:58.198Z,48.95
2018-06-24T18:43:40.193Z,49.01
2018-06-24T18:45:21.575Z,49.54
2018-06-24T18:47:03.345Z,49.56
2018-06-24T18:48:41.912Z,49.17
2018-06-24T18:50:24.038Z,49.63
2018-06-24T18:52:08.168Z,49.65
2018-06-24T18:53:47.567Z,49.82
2018-06-24T18:55:34.526Z,49.26
2018-06-24T18:57:16.239Z,49.71
2018-06-24T18:59:00.203Z,49.54
2018-06-24T19:00:50.300Z,49.41
2018-06-24T19:02:30.397Z,49.78
2018-06-24T19:04:09.670Z,49.27
2018-06-24T19:05:50.378Z,49.88
2018-06-24T19:07:30.113Z,49.93
2018-06-24T19:09:15.176Z,49.34
2018-06-24T19:10:56.265Z,49.24
2018-06-24T19:12:38.119Z,49.95
2018-06-24T19:14:16.126Z,49.41
2018-06-24T19:15:56.838Z,49.59
2018-06-24T19:17:35.315Z,49.96
2018-06-24T19:19:14.532Z,49.36
2018-06-24T19:20:53.942Z,49.98
2018-06-24T19:22:36.051Z,49.81
2018-06-24T19:24:15.293Z,49.44
2018-06-24T19:26:07.283Z,49.38
2018-06-24T19:27:44.376Z,49.39
2018-06-24T19:29:21.332Z,49.45
2018-06-24T19:31:03.509Z,49.48
2018-06-24T19:32:40.684Z,50.03
2018-06-24T19:34:22.104Z,50.03
2018-06-24T19:36:03.634Z,49.55
2018-06-24T19:37:43.417Z,50.00
2018-06-24T19:39:24.342Z,49.97
2018-06-24T19:41:01.974Z,50.04
2018-06-24T19:47:44.618Z,49.96
2018-06-24T19:49:21.086Z,49.74
2018-06-24T19:51:01.928Z,49.85
2018-06-24T19:54:33.751Z,49.30
2018-06-24T19:56:10.020Z,49.38
2018-06-24T19:57:47.955Z,49.44
2018-06-24T19:59:26.544Z,49.56
2018-06-24T20:01:08.098Z,49.46
2018-06-24T20:02:46.010Z,49.56
2018-06-24T20:04:24.105Z,49.51
2018-06-24T20:06:03.357Z,50.03
2018-06-24T20:07:42.051Z,50.15
2018-06-24T20:09:19.475Z,49.58
2018-06-24T20:10:59.529Z,49.61
2018-06-24T20:12:36.747Z,49.93
2018-06-24T20:14:14.309Z,49.65
2018-06-24T20:15:53.066Z,50.26
2018-06-24T20:17:31.725Z,49.66
2018-06-24T20:19:08.719Z,50.04
2018-06-24T20:20:45.585Z,50.09
2018-06-24T20:22:24.454Z,49.49
2018-06-24T20:24:02.693Z,50.03
2018-06-24T20:25:41.210Z,50.10
2018-06-24T20:27:33.530Z,50.24
2018-06-24T20:29:12.984Z,50.09
2018-06-24T20:30:52.007Z,49.79
2018-06-24T20:32:30.838Z,50.08
2018-06-24T20:34:09.518Z,49.76
2018-06-24T20:35:52.897Z,50.04
2018-06-24T20:37:31.384Z,50.28
2018-06-24T20:39:14.620Z,50.30
2018-06-24T20:40:53.770Z,49.81
2018-06-24T20:42:33.770Z,49.77
2018-06-24T20:44:12.216Z,50.32
2018-06-24T20:45:50.775Z,50.10
2018-06-24T20:47:31.947Z,49.93
2018-06-24T20:49:11.261Z,50.36
2018-06-24T20:50:54.563Z,49.95
2018-06-24T20:52:32.631Z,49.79
2018-06-24T20:54:11.668Z,50.44
2018-06-24T20:55:48.382Z,50.03
2018-06-24T20:57:27.420Z,50.44
2018-06-24T20:59:06.517Z,50.63
2018-06-24T21:00:47.778Z,50.12
2018-06-24T21:02:26.408Z,50.65
2018-06-24T21:04:04.188Z,50.21
2018-06-24T21:05:41.214Z,50.75
2018-06-24T21:07:21.189Z,50.69
2018-06-24T21:08:58.766Z,50.21
2018-06-24T21:10:38.850Z,50.67
2018-06-24T21:12:22.467Z,50.35
2018-06-24T21:14:00.119Z,50.85
2018-06-24T21:15:39.786Z,50.75
2018-06-24T21:17:23.474Z,50.56
2018-06-24T21:19:05.320Z,50.49
2018-06-24T21:20:57.482Z,50.36
2018-06-24T21:22:41.014Z,50.93
2018-06-24T21:24:25.739Z,50.93
2018-06-24T21:26:05.673Z,50.44
2018-06-24T21:27:43.651Z,51.07